createdAt,value
2022-10-28T00:01:41.974Z,7.30
2022-10-28T00:04:12.479Z,6.37
2022-10-28T00:06:42.868Z,6.87
2022-10-28T00:09:13.435Z,6.87
2022-10-28T00:11:43.804Z,6.80
2022-10-28T00:14:15.079Z,6.20
2022-10-28T00:16:45.470Z,6.70
2022-10-28T00:19:16.189Z,6.45
2022-10-28T00:21:47.183Z,6.65
2022-10-28T00:24:17.579Z,6.40
2022-10-28T00:26:48.019Z,6.65
2022-10-28T00:29:20.256Z,6.47
2022-10-28T00:31:52.583Z,7.25
2022-10-28T00:34:23.006Z,6.80
2022-10-28T00:36:53.467Z,6.83
2022-10-28T00:39:27.496Z,6.67
2022-10-28T00:42:03.697Z,6.45
2022-10-28T00:44:53.673Z,7.03
2022-10-28T00:47:32.870Z,7.30
2022-10-28T00:50:06.239Z,7.05
2022-10-28T00:52:37.446Z,7.20
2022-10-28T00:55:08.979Z,7.25
2022-10-28T00:57:41.885Z,6.80
2022-10-28T01:00:13.584Z,7.20
2022-10-28T01:02:47.142Z,7.28
2022-10-28T01:05:23.562Z,6.65
2022-10-28T01:07:56.772Z,6.95
2022-10-28T01:10:33.454Z,7.12
2022-10-28T01:13:06.941Z,7.28
2022-10-28T01:15:46.377Z,6.78
2022-10-28T01:18:28.574Z,7.80
2022-10-28T01:21:31.797Z,7.22
2022-10-28T01:24:26.607Z,6.97
2022-10-28T01:27:03.042Z,7.20
2022-10-28T01:29:56.390Z,7.12
2022-10-28T01:32:51.505Z,7.33
2022-10-28T01:35:39.548Z,6.90
2022-10-28T01:38:18.838Z,7.30
2022-10-28T01:40:55.157Z,7.42
2022-10-28T01:43:37.061Z,7.20
2022-10-28T01:46:10.451Z,7.25
2022-10-28T01:48:46.592Z,7.80
2022-10-28T01:51:25.738Z,7.35
2022-10-28T01:53:59.043Z,7.65
2022-10-28T01:56:40.943Z,7.42
2022-10-28T01:59:14.531Z,7.20
2022-10-28T02:01:45.144Z,7.62
2022-10-28T02:04:15.991Z,7.55
2022-10-28T02:06:49.644Z,7.30
2022-10-28T02:09:32.399Z,7.65
2022-10-28T02:12:24.054Z,7.97
2022-10-28T02:15:12.883Z,7.50
2022-10-28T02:17:56.277Z,7.75
2022-10-28T02:20:30.299Z,7.17
2022-10-28T02:23:15.483Z,7.97
2022-10-28T02:26:19.494Z,8.00
2022-10-28T02:29:08.063Z,7.67
2022-10-28T02:31:41.499Z,7.97
2022-10-28T02:34:14.977Z,7.60
2022-10-28T02:36:48.273Z,8.35
2022-10-28T02:39:21.745Z,7.62
2022-10-28T02:42:06.618Z,7.50
2022-10-28T02:44:40.109Z,7.65
2022-10-28T02:47:13.478Z,8.03
2022-10-28T02:49:46.991Z,7.90
2022-10-28T02:52:20.379Z,8.20
2022-10-28T02:54:59.957Z,7.65
2022-10-28T02:57:36.016Z,7.35
2022-10-28T03:00:12.418Z,7.75
2022-10-28T03:02:43.049Z,7.50
2022-10-28T03:05:14.271Z,8.05
2022-10-28T03:07:45.121Z,7.70
2022-10-28T03:10:15.559Z,7.75
2022-10-28T03:12:45.962Z,8.05
2022-10-28T03:15:16.611Z,7.60
2022-10-28T03:17:47.077Z,7.28
2022-10-28T03:20:17.527Z,7.97
2022-10-28T03:22:48.109Z,7.80
2022-10-28T03:25:18.517Z,7.80
2022-10-28T03:27:49.102Z,7.47
2022-10-28T03:30:19.489Z,7.47
2022-10-28T03:32:49.853Z,7.58
2022-10-28T03:35:20.266Z,7.42
2022-10-28T03:37:50.608Z,7.25
2022-10-28T03:40:20.979Z,7.70
2022-10-28T03:42:51.732Z,7.33
2022-10-28T03:45:22.405Z,7.58
2022-10-28T03:47:53.498Z,7.67
2022-10-28T03:50:25.210Z,7.83
2022-10-28T03:52:55.604Z,8.05
2022-10-28T03:55:27.468Z,7.65
2022-10-28T03:57:59.455Z,7.33
2022-10-28T04:00:30.287Z,8.23
2022-10-28T04:03:00.683Z,7.90
2022-10-28T04:05:31.263Z,7.92
2022-10-28T04:08:01.647Z,8.33
2022-10-28T04:10:32.043Z,8.08
2022-10-28T04:13:05.139Z,7.75
2022-10-28T04:15:35.468Z,7.92
2022-10-28T04:18:06.216Z,8.45
2022-10-28T04:20:36.656Z,8.00
2022-10-28T04:23:07.305Z,7.58
2022-10-28T04:25:37.718Z,8.05
2022-10-28T04:28:08.040Z,7.62
2022-10-28T04:30:38.592Z,8.13
2022-10-28T04:33:10.592Z,7.62
2022-10-28T04:35:42.638Z,7.97
2022-10-28T04:38:15.563Z,8.83
2022-10-28T04:40:49.045Z,7.53
2022-10-28T04:43:19.454Z,8.13
2022-10-28T04:45:49.841Z,8.18
2022-10-28T04:48:20.255Z,8.73
2022-10-28T04:50:50.928Z,8.05
2022-10-28T04:53:21.257Z,7.95
2022-10-28T04:55:51.911Z,8.15
2022-10-28T04:58:22.434Z,8.38
2022-10-28T05:00:52.879Z,8.28
2022-10-28T05:03:23.349Z,8.55
2022-10-28T05:05:53.746Z,8.25
2022-10-28T05:08:24.201Z,8.13
2022-10-28T05:10:54.957Z,8.03
2022-10-28T05:13:25.439Z,8.83
2022-10-28T05:15:55.930Z,8.58
2022-10-28T05:18:26.491Z,8.78
2022-10-28T05:20:56.921Z,8.35
2022-10-28T05:23:30.808Z,8.65
2022-10-28T05:25:59.817Z,9.13
2022-10-28T05:28:30.190Z,9.33
2022-10-28T05:31:00.620Z,8.65
2022-10-28T05:33:31.101Z,8.60
2022-10-28T05:36:02.083Z,9.28
2022-10-28T05:38:32.448Z,8.98
2022-10-28T05:41:03.586Z,9.38
2022-10-28T05:43:33.972Z,10.95
2022-10-28T05:46:04.998Z,8.95
2022-10-28T05:48:35.374Z,9.08
2022-10-28T05:51:05.826Z,9.43
2022-10-28T05:53:36.219Z,9.25
2022-10-28T05:56:06.756Z,9.73
2022-10-28T05:58:37.140Z,9.00
2022-10-28T06:01:08.721Z,9.35
2022-10-28T06:03:39.155Z,8.80
2022-10-28T06:06:09.519Z,9.05
2022-10-28T06:08:39.919Z,9.08
2022-10-28T06:11:09.451Z,8.68
2022-10-28T06:13:39.898Z,8.68
2022-10-28T06:16:10.235Z,9.43
2022-10-28T06:18:40.622Z,8.53
2022-10-28T06:21:11.047Z,8.35
2022-10-28T06:23:41.363Z,8.20
2022-10-28T06:26:11.760Z,8.58
2022-10-28T06:28:42.072Z,8.50
2022-10-28T06:31:12.607Z,9.00
2022-10-28T06:33:43.030Z,8.30
2022-10-28T06:36:13.422Z,7.87
2022-10-28T06:38:43.754Z,9.18
2022-10-28T06:41:14.253Z,8.50
2022-10-28T06:43:44.711Z,8.73
2022-10-28T06:46:15.249Z,8.05
2022-10-28T06:48:47.254Z,8.63
2022-10-28T06:51:17.932Z,8.35
2022-10-28T06:53:54.156Z,8.75
2022-10-28T06:56:24.781Z,8.63
2022-10-28T06:58:55.783Z,8.70
2022-10-28T07:01:26.344Z,7.95
2022-10-28T07:03:56.931Z,7.50
2022-10-28T07:06:27.493Z,9.20
2022-10-28T07:08:57.869Z,8.10
2022-10-28T07:11:28.520Z,8.48
2022-10-28T07:13:59.119Z,7.78
2022-10-28T07:16:29.485Z,7.58
2022-10-28T07:18:59.910Z,8.38
2022-10-28T07:21:30.379Z,7.83
2022-10-28T07:24:01.107Z,8.73
2022-10-28T07:26:31.505Z,7.67
2022-10-28T07:29:01.985Z,7.75
2022-10-28T07:31:32.351Z,8.15
2022-10-28T07:34:03.181Z,6.87
2022-10-28T07:36:33.656Z,7.12
2022-10-28T07:39:04.179Z,7.10
2022-10-28T07:41:34.577Z,6.58
2022-10-28T07:44:05.148Z,6.72
2022-10-28T07:46:36.126Z,6.37
2022-10-28T07:49:06.674Z,6.80
2022-10-28T07:51:37.113Z,6.30
2022-10-28T07:54:07.634Z,6.45
2022-10-28T07:56:40.646Z,6.08
2022-10-28T07:59:11.039Z,6.70
2022-10-28T08:01:41.516Z,5.90
2022-10-28T08:04:12.198Z,6.60
2022-10-28T08:06:42.925Z,5.87
2022-10-28T08:09:13.871Z,6.08
2022-10-28T08:11:44.173Z,6.17
2022-10-28T08:14:14.865Z,6.87
2022-10-28T08:16:46.857Z,6.12
2022-10-28T08:19:17.334Z,6.70
2022-10-28T08:21:49.317Z,5.95
2022-10-28T08:24:19.699Z,5.90
2022-10-28T08:26:50.160Z,6.72
2022-10-28T08:29:20.768Z,5.42
2022-10-28T08:31:51.288Z,5.37
2022-10-28T08:36:52.138Z,6.67
2022-10-28T08:39:22.894Z,6.70
2022-10-28T08:42:05.020Z,6.05
2022-10-28T08:44:53.261Z,6.42
2022-10-28T08:47:41.902Z,6.20
2022-10-28T08:50:15.443Z,7.00
2022-10-28T08:53:03.753Z,7.40
2022-10-28T08:55:43.257Z,7.40
2022-10-28T08:58:19.577Z,6.65
2022-10-28T09:00:54.041Z,7.78
2022-10-28T09:03:27.370Z,9.13
2022-10-28T09:06:08.881Z,6.85
2022-10-28T09:08:42.398Z,5.90
2022-10-28T09:11:26.277Z,5.87
2022-10-28T09:13:59.738Z,5.40
2022-10-28T09:16:48.066Z,5.42
2022-10-28T09:19:27.708Z,5.40
2022-10-28T09:22:29.860Z,4.72
2022-10-28T09:25:22.816Z,4.58
2022-10-28T09:27:59.345Z,4.33
2022-10-28T09:31:02.827Z,3.98
2022-10-28T09:33:42.014Z,4.28
2022-10-28T09:36:18.320Z,5.10
2022-10-28T09:38:50.847Z,4.58
2022-10-28T09:41:27.185Z,5.20
2022-10-28T09:44:06.223Z,4.60
2022-10-28T09:46:37.448Z,4.60
2022-10-28T09:49:11.221Z,4.95
2022-10-28T09:51:56.896Z,4.92
2022-10-28T09:54:33.403Z,4.67
2022-10-28T09:57:04.956Z,4.75
2022-10-28T09:59:36.268Z,4.60
2022-10-28T10:02:06.986Z,4.95
2022-10-28T10:04:38.252Z,4.72
2022-10-28T10:07:15.057Z,4.60
2022-10-28T10:09:46.233Z,4.70
2022-10-28T10:12:17.153Z,5.00
2022-10-28T10:14:50.793Z,4.67
2022-10-28T10:17:33.368Z,4.80
2022-10-28T10:20:12.353Z,4.30
2022-10-28T10:22:44.980Z,4.45
2022-10-28T10:25:25.272Z,5.22
2022-10-28T10:28:07.411Z,4.60
2022-10-28T10:30:43.871Z,4.40
2022-10-28T10:33:29.156Z,4.20
2022-10-28T10:36:05.707Z,4.33
2022-10-28T10:38:36.969Z,5.62
2022-10-28T10:41:07.483Z,4.20
2022-10-28T10:43:39.768Z,4.10
2022-10-28T10:46:18.607Z,3.85
2022-10-28T10:48:52.124Z,4.78
2022-10-28T10:51:30.068Z,4.20
2022-10-28T10:54:00.965Z,3.87
2022-10-28T10:56:34.016Z,3.70
2022-10-28T10:59:06.784Z,4.03
2022-10-28T11:01:40.747Z,3.67
2022-10-28T11:04:23.400Z,4.12
2022-10-28T11:06:57.062Z,3.85
2022-10-28T11:09:30.632Z,4.20
2022-10-28T11:12:01.502Z,4.08
2022-10-28T11:14:33.122Z,3.50
2022-10-28T11:17:04.773Z,3.58
2022-10-28T11:19:37.350Z,3.37
2022-10-28T11:22:13.688Z,4.15
2022-10-28T11:24:59.146Z,3.90
2022-10-28T11:27:46.376Z,3.85
2022-10-28T11:30:20.258Z,3.65
2022-10-28T11:33:35.392Z,3.55
2022-10-28T11:36:15.954Z,3.45
2022-10-28T11:38:55.271Z,3.83
2022-10-28T11:41:28.883Z,4.62
2022-10-28T11:44:04.999Z,4.20
2022-10-28T11:46:48.356Z,4.70
2022-10-28T11:49:34.081Z,3.75
2022-10-28T11:52:10.475Z,3.70
2022-10-28T11:55:03.242Z,3.87
2022-10-28T11:57:53.951Z,3.92
2022-10-28T12:00:59.546Z,3.70
2022-10-28T12:03:48.150Z,3.65
2022-10-28T12:06:42.492Z,3.75
2022-10-28T12:09:18.979Z,4.22
2022-10-28T12:11:58.803Z,3.58
2022-10-28T12:14:32.197Z,5.85
2022-10-28T12:17:17.850Z,4.10
2022-10-28T12:19:57.355Z,3.20
2022-10-28T12:22:36.882Z,3.50
2022-10-28T12:25:13.137Z,3.60
2022-10-28T12:27:47.246Z,3.55
2022-10-28T12:30:23.488Z,3.50
2022-10-28T12:32:57.231Z,4.33
2022-10-28T12:35:30.887Z,3.70
2022-10-28T12:38:25.462Z,3.87
2022-10-28T12:41:10.436Z,3.55
2022-10-28T12:43:46.850Z,3.67
2022-10-28T12:46:22.892Z,3.42
2022-10-28T12:48:56.412Z,3.45
2022-10-28T12:51:32.798Z,4.08
2022-10-28T12:54:26.042Z,3.80
2022-10-28T12:56:59.519Z,3.45
2022-10-28T12:59:35.753Z,3.42
2022-10-28T13:02:09.292Z,3.58
2022-10-28T13:04:39.822Z,3.98
2022-10-28T13:07:28.099Z,3.80
2022-10-28T13:10:04.263Z,4.67
2022-10-28T13:12:50.018Z,3.02
2022-10-28T13:15:39.902Z,3.77
2022-10-28T13:18:28.663Z,4.42
2022-10-28T13:21:35.505Z,3.60
2022-10-28T13:24:17.656Z,3.47
2022-10-28T13:26:49.108Z,3.80
2022-10-28T13:29:28.818Z,3.90
2022-10-28T13:31:59.577Z,3.80
2022-10-28T13:34:36.089Z,3.80
2022-10-28T13:37:09.154Z,3.77
2022-10-28T13:39:47.279Z,3.70
2022-10-28T13:42:22.395Z,3.87
2022-10-28T13:44:58.711Z,4.20
2022-10-28T13:47:34.724Z,3.77
2022-10-28T13:50:12.523Z,4.00
2022-10-28T13:52:44.360Z,3.67
2022-10-28T13:55:26.642Z,3.67
2022-10-28T13:58:03.146Z,3.80
2022-10-28T14:00:35.921Z,3.70
2022-10-28T14:03:09.526Z,4.37
2022-10-28T14:05:43.169Z,3.77
2022-10-28T14:08:22.364Z,3.90
2022-10-28T14:11:11.254Z,3.65
2022-10-28T14:13:50.781Z,4.33
2022-10-28T14:16:32.358Z,4.00
2022-10-28T14:19:11.386Z,3.70
2022-10-28T14:21:50.780Z,4.60
2022-10-28T14:24:39.231Z,3.40
2022-10-28T14:27:12.825Z,3.70
2022-10-28T14:29:51.107Z,4.05
2022-10-28T14:32:43.050Z,3.65
2022-10-28T14:35:16.443Z,4.08
2022-10-28T14:38:08.924Z,4.20
2022-10-28T14:40:51.453Z,3.95
2022-10-28T14:43:37.074Z,3.92
2022-10-28T14:46:30.513Z,4.00
2022-10-28T14:49:03.549Z,4.15
2022-10-28T14:51:42.404Z,3.85
2022-10-28T14:54:21.919Z,4.15
2022-10-28T14:56:55.332Z,4.30
2022-10-28T14:59:28.473Z,3.85
2022-10-28T15:02:12.755Z,4.85
2022-10-28T15:04:45.798Z,4.00
2022-10-28T15:07:19.070Z,4.05
2022-10-28T15:09:54.204Z,4.00
2022-10-28T15:12:26.871Z,4.30
2022-10-28T15:14:58.244Z,4.53
2022-10-28T15:17:31.931Z,4.05
2022-10-28T15:20:04.280Z,4.53
2022-10-28T15:22:34.708Z,3.92
2022-10-28T15:25:13.874Z,4.50
2022-10-28T15:27:46.483Z,4.20
2022-10-28T15:30:23.745Z,4.10
2022-10-28T15:32:56.231Z,4.45
2022-10-28T15:35:35.808Z,4.42
2022-10-28T15:38:24.526Z,4.10
2022-10-28T15:40:55.339Z,4.40
2022-10-28T15:43:31.048Z,4.47
2022-10-28T15:46:12.220Z,4.03
2022-10-28T15:48:42.988Z,4.47
2022-10-28T15:51:15.919Z,5.80
2022-10-28T15:53:52.312Z,6.60
2022-10-28T15:56:32.639Z,4.40
2022-10-28T15:59:14.687Z,4.20
2022-10-28T16:01:45.087Z,4.90
2022-10-28T16:04:27.708Z,4.47
2022-10-28T16:07:01.189Z,4.95
2022-10-28T16:09:34.575Z,4.50
2022-10-28T16:12:13.855Z,4.78
2022-10-28T16:14:50.543Z,4.37
2022-10-28T16:17:24.269Z,4.25
2022-10-28T16:20:18.535Z,4.55
2022-10-28T16:22:48.456Z,5.15
2022-10-28T16:25:21.642Z,4.45
2022-10-28T16:27:52.495Z,4.40
2022-10-28T16:32:53.822Z,5.05
2022-10-28T16:35:26.593Z,4.97
2022-10-28T16:37:56.977Z,4.55
2022-10-28T16:43:01.152Z,5.22
2022-10-28T16:45:31.549Z,5.20
2022-10-28T16:48:02.016Z,5.05
2022-10-28T16:50:32.401Z,7.60
2022-10-28T16:53:02.822Z,5.62
2022-10-28T16:55:33.251Z,5.83
2022-10-28T16:58:03.909Z,4.60
2022-10-28T17:00:34.540Z,4.95
2022-10-28T17:03:05.617Z,5.22
2022-10-28T17:05:36.093Z,4.80
2022-10-28T17:08:09.959Z,5.03
2022-10-28T17:10:41.710Z,4.92
2022-10-28T17:13:16.204Z,6.12
2022-10-28T17:15:48.112Z,5.37
2022-10-28T17:18:19.393Z,6.20
2022-10-28T17:21:01.311Z,5.10
2022-10-28T17:23:31.770Z,5.05
2022-10-28T17:26:03.611Z,5.00
2022-10-28T17:28:34.115Z,4.95
2022-10-28T17:31:07.038Z,5.33
2022-10-28T17:33:37.432Z,4.92
2022-10-28T17:36:08.907Z,4.90
2022-10-28T17:38:39.588Z,4.87
2022-10-28T17:41:10.020Z,4.87
2022-10-28T17:43:40.386Z,5.28
2022-10-28T17:46:11.243Z,4.40
2022-10-28T17:48:41.883Z,4.75
2022-10-28T17:51:12.499Z,5.28
2022-10-28T17:53:42.873Z,4.83
2022-10-28T17:56:13.364Z,5.00
2022-10-28T17:58:43.801Z,5.15
2022-10-28T18:01:14.280Z,5.28
2022-10-28T18:03:44.801Z,5.40
2022-10-28T18:06:15.160Z,5.95
2022-10-28T18:08:45.980Z,4.92
2022-10-28T18:11:19.543Z,4.87
2022-10-28T18:13:52.732Z,5.12
2022-10-28T18:16:27.016Z,5.00
2022-10-28T18:18:59.164Z,5.85
2022-10-28T18:21:29.531Z,5.83
2022-10-28T18:24:01.757Z,6.15
2022-10-28T18:26:34.180Z,5.62
2022-10-28T18:29:06.238Z,5.58
2022-10-28T18:31:40.022Z,5.20
2022-10-28T18:34:11.121Z,5.42
2022-10-28T18:36:41.506Z,5.22
2022-10-28T18:39:11.920Z,5.42
2022-10-28T18:41:43.775Z,5.05
2022-10-28T18:44:16.965Z,5.05
2022-10-28T18:46:47.490Z,5.75
2022-10-28T18:49:18.220Z,5.67
2022-10-28T18:51:48.527Z,5.00
2022-10-28T18:54:18.844Z,5.50
2022-10-28T18:56:53.702Z,5.60
2022-10-28T18:59:22.744Z,5.00
2022-10-28T19:01:53.335Z,5.58
2022-10-28T19:04:24.019Z,6.35
2022-10-28T19:06:56.827Z,5.42
2022-10-28T19:09:27.563Z,5.15
2022-10-28T19:11:57.970Z,5.35
2022-10-28T19:14:28.374Z,5.10
2022-10-28T19:16:58.694Z,5.55
2022-10-28T19:19:29.152Z,6.17
2022-10-28T19:21:59.684Z,5.70
2022-10-28T19:24:30.007Z,5.75
2022-10-28T19:27:00.425Z,5.47
2022-10-28T19:29:31.110Z,7.42
2022-10-28T19:32:02.155Z,7.70
2022-10-28T19:34:32.683Z,12.13
2022-10-28T19:37:03.033Z,9.68
2022-10-28T19:39:33.604Z,13.13
2022-10-28T19:42:04.010Z,9.45
2022-10-28T19:44:34.430Z,9.20
2022-10-28T19:47:04.919Z,8.20
2022-10-28T19:49:39.362Z,8.40
2022-10-28T19:52:07.353Z,6.97
2022-10-28T19:54:37.713Z,7.40
2022-10-28T19:57:08.228Z,6.95
2022-10-28T19:59:38.671Z,6.60
2022-10-28T20:02:10.314Z,6.62
2022-10-28T20:04:40.894Z,6.15
2022-10-28T20:07:11.373Z,6.70
2022-10-28T20:09:41.783Z,5.75
2022-10-28T20:12:12.142Z,5.50
2022-10-28T20:14:42.587Z,6.25
2022-10-28T20:17:14.557Z,6.30
2022-10-28T20:19:44.948Z,7.15
2022-10-28T20:22:17.148Z,5.90
2022-10-28T20:24:47.529Z,5.92
2022-10-28T20:27:18.037Z,6.67
2022-10-28T20:29:48.434Z,6.28
2022-10-28T20:32:20.459Z,6.00
2022-10-28T20:34:50.775Z,9.35
2022-10-28T20:37:21.346Z,6.25
2022-10-28T20:39:54.927Z,6.58
2022-10-28T20:42:23.958Z,5.92
2022-10-28T20:44:54.359Z,6.37
2022-10-28T20:47:24.826Z,6.97
2022-10-28T20:49:55.380Z,6.37
2022-10-28T20:52:25.739Z,6.72
2022-10-28T20:54:56.372Z,6.33
2022-10-28T20:57:26.743Z,6.30
2022-10-28T20:59:57.146Z,6.30
2022-10-28T21:02:27.617Z,6.62
2022-10-28T21:04:58.267Z,6.00
2022-10-28T21:07:28.712Z,5.92
2022-10-28T21:10:00.769Z,6.53
2022-10-28T21:12:31.190Z,7.08
2022-10-28T21:15:01.647Z,6.25
2022-10-28T21:17:32.283Z,6.10
2022-10-28T21:20:02.762Z,6.15
2022-10-28T21:22:33.260Z,6.35
2022-10-28T21:25:04.331Z,6.33
2022-10-28T21:27:34.645Z,7.12
2022-10-28T21:30:05.405Z,6.50
2022-10-28T21:32:39.395Z,5.90
2022-10-28T21:35:10.509Z,6.65
2022-10-28T21:37:40.956Z,6.35
2022-10-28T21:40:12.607Z,8.60
2022-10-28T21:42:44.968Z,6.22
2022-10-28T21:45:15.498Z,7.30
2022-10-28T21:47:46.097Z,6.28
2022-10-28T21:50:17.962Z,6.53
2022-10-28T21:52:48.315Z,6.55
2022-10-28T21:55:20.925Z,6.40
2022-10-28T21:57:50.701Z,6.58
2022-10-28T22:00:21.171Z,5.65
2022-10-28T22:02:52.378Z,6.40
2022-10-28T22:05:22.834Z,6.62
2022-10-28T22:07:53.437Z,6.80
2022-10-28T22:10:24.023Z,6.30
2022-10-28T22:12:56.326Z,6.67
2022-10-28T22:15:26.772Z,6.35
2022-10-28T22:17:57.569Z,7.15
2022-10-28T22:20:28.232Z,6.35
2022-10-28T22:22:58.720Z,6.47
2022-10-28T22:25:29.297Z,6.15
2022-10-28T22:27:59.635Z,6.92
2022-10-28T22:30:30.004Z,7.05
2022-10-28T22:33:00.405Z,6.17
2022-10-28T22:35:30.726Z,6.72
2022-10-28T22:38:01.209Z,6.90
2022-10-28T22:40:31.584Z,6.65
2022-10-28T22:43:02.069Z,6.35
2022-10-28T22:45:32.385Z,6.50
2022-10-28T22:48:02.647Z,5.72
2022-10-28T22:50:33.041Z,6.03
2022-10-28T22:53:03.430Z,6.15
2022-10-28T22:55:33.848Z,5.83
2022-10-28T22:58:04.257Z,5.75
2022-10-28T23:00:34.651Z,5.78
2022-10-28T23:03:05.081Z,5.58
2022-10-28T23:05:35.744Z,5.85
2022-10-28T23:08:06.308Z,6.33
2022-10-28T23:10:36.620Z,5.65
2022-10-28T23:13:07.100Z,6.15
2022-10-28T23:15:37.466Z,5.30
2022-10-28T23:18:07.962Z,5.90
2022-10-28T23:20:38.351Z,5.12
2022-10-28T23:23:08.755Z,4.80
2022-10-28T23:25:39.122Z,5.00
2022-10-28T23:28:09.445Z,4.80
2022-10-28T23:30:39.752Z,4.92
2022-10-28T23:33:10.175Z,5.50
2022-10-28T23:35:41.731Z,4.65
2022-10-28T23:38:13.785Z,4.67
2022-10-28T23:40:44.205Z,4.90
2022-10-28T23:43:14.602Z,5.10
2022-10-28T23:45:44.985Z,4.90
2022-10-28T23:48:15.509Z,5.12
2022-10-28T23:50:46.423Z,4.87
2022-10-28T23:53:17.321Z,4.90
2022-10-28T23:55:49.563Z,4.50
2022-10-28T23:58:21.450Z,4.22
